sensor_id;sensor_type;location;lat;lon;timestamp;P1;durP1;ratioP1;P2;durP2;ratioP2
75746;SDS011;70632;52.232;21.038;2024-02-16T00:02:20;37.17;;;17.27;;
75746;SDS011;70632;52.232;21.038;2024-02-16T00:04:45;40.15;;;16.42;;
75746;SDS011;70632;52.232;21.038;2024-02-16T00:07:11;43.42;;;16.50;;
75746;SDS011;70632;52.232;21.038;2024-02-16T00:09:37;34.28;;;16.13;;
75746;SDS011;70632;52.232;21.038;2024-02-16T00:12:03;38.63;;;16.45;;
75746;SDS011;70632;52.232;21.038;2024-02-16T00:14:28;39.63;;;18.45;;
75746;SDS011;70632;52.232;21.038;2024-02-16T00:16:54;38.17;;;16.88;;
75746;SDS011;70632;52.232;21.038;2024-02-16T00:19:20;30.95;;;15.98;;
75746;SDS011;70632;52.232;21.038;2024-02-16T00:21:46;34.95;;;16.50;;
75746;SDS011;70632;52.232;21.038;2024-02-16T00:24:12;35.38;;;17.58;;
75746;SDS011;70632;52.232;21.038;2024-02-16T00:26:37;31.25;;;15.82;;
75746;SDS011;70632;52.232;21.038;2024-02-16T00:29:04;30.02;;;15.50;;
75746;SDS011;70632;52.232;21.038;2024-02-16T00:31:30;32.25;;;14.68;;
75746;SDS011;70632;52.232;21.038;2024-02-16T00:33:56;31.92;;;16.92;;
75746;SDS011;70632;52.232;21.038;2024-02-16T00:36:22;40.90;;;16.38;;
75746;SDS011;70632;52.232;21.038;2024-02-16T00:38:47;34.47;;;15.20;;
75746;SDS011;70632;52.232;21.038;2024-02-16T00:41:20;35.47;;;15.70;;
75746;SDS011;70632;52.232;21.038;2024-02-16T00:43:46;35.05;;;16.42;;
75746;SDS011;70632;52.232;21.038;2024-02-16T00:46:12;33.50;;;14.25;;
75746;SDS011;70632;52.232;21.038;2024-02-16T00:48:38;26.17;;;13.70;;
75746;SDS011;70632;52.232;21.038;2024-02-16T00:51:04;30.15;;;13.30;;
75746;SDS011;70632;52.232;21.038;2024-02-16T00:53:30;36.97;;;16.52;;
75746;SDS011;70632;52.232;21.038;2024-02-16T00:55:55;35.30;;;14.93;;
75746;SDS011;70632;52.232;21.038;2024-02-16T00:58:21;33.78;;;16.75;;
75746;SDS011;70632;52.232;21.038;2024-02-16T01:00:47;33.47;;;15.52;;
75746;SDS011;70632;52.232;21.038;2024-02-16T01:03:12;32.13;;;13.88;;
75746;SDS011;70632;52.232;21.038;2024-02-16T01:05:39;28.60;;;13.45;;
75746;SDS011;70632;52.232;21.038;2024-02-16T01:08:06;31.63;;;15.43;;
75746;SDS011;70632;52.232;21.038;2024-02-16T01:10:32;25.80;;;12.73;;
75746;SDS011;70632;52.232;21.038;2024-02-16T01:12:58;31.27;;;13.23;;
75746;SDS011;70632;52.232;21.038;2024-02-16T01:15:24;27.10;;;12.75;;
75746;SDS011;70632;52.232;21.038;2024-02-16T01:17:49;35.03;;;14.40;;
75746;SDS011;70632;52.232;21.038;2024-02-16T01:20:15;29.17;;;12.60;;
75746;SDS011;70632;52.232;21.038;2024-02-16T01:22:41;26.23;;;13.60;;
75746;SDS011;70632;52.232;21.038;2024-02-16T01:25:07;26.63;;;12.57;;
75746;SDS011;70632;52.232;21.038;2024-02-16T01:27:34;25.70;;;13.13;;
75746;SDS011;70632;52.232;21.038;2024-02-16T01:30:01;23.27;;;12.23;;
75746;SDS011;70632;52.232;21.038;2024-02-16T01:32:26;34.83;;;13.82;;
75746;SDS011;70632;52.232;21.038;2024-02-16T01:34:52;21.83;;;12.10;;
75746;SDS011;70632;52.232;21.038;2024-02-16T01:37:18;29.20;;;12.80;;
75746;SDS011;70632;52.232;21.038;2024-02-16T01:39:44;26.40;;;12.43;;
75746;SDS011;70632;52.232;21.038;2024-02-16T01:42:10;26.42;;;12.48;;
75746;SDS011;70632;52.232;21.038;2024-02-16T01:44:36;23.02;;;10.98;;
75746;SDS011;70632;52.232;21.038;2024-02-16T01:47:03;25.98;;;11.65;;
75746;SDS011;70632;52.232;21.038;2024-02-16T01:49:29;23.52;;;11.50;;
75746;SDS011;70632;52.232;21.038;2024-02-16T01:51:56;23.15;;;10.50;;
75746;SDS011;70632;52.232;21.038;2024-02-16T01:54:23;26.90;;;11.20;;
75746;SDS011;70632;52.232;21.038;2024-02-16T01:56:48;25.65;;;12.05;;
75746;SDS011;70632;52.232;21.038;2024-02-16T01:59:19;22.70;;;10.52;;
75746;SDS011;70632;52.232;21.038;2024-02-16T02:01:44;25.60;;;11.18;;
75746;SDS011;70632;52.232;21.038;2024-02-16T02:04:10;24.30;;;11.75;;
75746;SDS011;70632;52.232;21.038;2024-02-16T02:06:36;26.20;;;11.63;;
75746;SDS011;70632;52.232;21.038;2024-02-16T02:09:03;28.33;;;12.30;;
75746;SDS011;70632;52.232;21.038;2024-02-16T02:11:29;23.02;;;11.23;;
75746;SDS011;70632;52.232;21.038;2024-02-16T02:13:55;27.63;;;11.60;;
75746;SDS011;70632;52.232;21.038;2024-02-16T02:16:21;21.83;;;11.05;;
75746;SDS011;70632;52.232;21.038;2024-02-16T02:18:48;23.23;;;10.65;;
75746;SDS011;70632;52.232;21.038;2024-02-16T02:21:13;24.10;;;11.45;;
75746;SDS011;70632;52.232;21.038;2024-02-16T02:23:40;26.00;;;11.45;;
75746;SDS011;70632;52.232;21.038;2024-02-16T02:26:06;25.33;;;11.63;;
75746;SDS011;70632;52.232;21.038;2024-02-16T02:28:32;23.45;;;11.48;;
75746;SDS011;70632;52.232;21.038;2024-02-16T02:30:59;21.23;;;11.68;;
75746;SDS011;70632;52.232;21.038;2024-02-16T02:33:25;21.35;;;10.40;;
75746;SDS011;70632;52.232;21.038;2024-02-16T02:35:51;28.58;;;12.45;;
75746;SDS011;70632;52.232;21.038;2024-02-16T02:38:17;26.33;;;11.40;;
75746;SDS011;70632;52.232;21.038;2024-02-16T02:40:42;28.95;;;11.80;;
75746;SDS011;70632;52.232;21.038;2024-02-16T02:43:08;24.88;;;10.27;;
75746;SDS011;70632;52.232;21.038;2024-02-16T02:45:34;22.00;;;11.23;;
75746;SDS011;70632;52.232;21.038;2024-02-16T02:48:00;29.58;;;12.95;;
75746;SDS011;70632;52.232;21.038;2024-02-16T02:50:25;22.17;;;11.20;;
75746;SDS011;70632;52.232;21.038;2024-02-16T02:52:52;20.83;;;10.38;;
75746;SDS011;70632;52.232;21.038;2024-02-16T02:55:17;23.52;;;11.00;;
75746;SDS011;70632;52.232;21.038;2024-02-16T02:57:43;27.90;;;11.23;;
75746;SDS011;70632;52.232;21.038;2024-02-16T03:00:09;21.83;;;10.43;;
75746;SDS011;70632;52.232;21.038;2024-02-16T03:02:38;23.48;;;10.00;;
75746;SDS011;70632;52.232;21.038;2024-02-16T03:05:05;24.98;;;10.98;;
75746;SDS011;70632;52.232;21.038;2024-02-16T03:07:33;25.20;;;10.75;;
75746;SDS011;70632;52.232;21.038;2024-02-16T03:09:59;23.25;;;11.45;;
75746;SDS011;70632;52.232;21.038;2024-02-16T03:12:25;22.02;;;10.27;;
75746;SDS011;70632;52.232;21.038;2024-02-16T03:14:51;20.92;;;10.25;;
75746;SDS011;70632;52.232;21.038;2024-02-16T03:17:17;25.80;;;10.93;;
75746;SDS011;70632;52.232;21.038;2024-02-16T03:19:42;27.45;;;12.18;;
75746;SDS011;70632;52.232;21.038;2024-02-16T03:22:08;21.45;;;9.77;;
75746;SDS011;70632;52.232;21.038;2024-02-16T03:24:34;22.65;;;10.25;;
75746;SDS011;70632;52.232;21.038;2024-02-16T03:26:59;21.58;;;10.57;;
75746;SDS011;70632;52.232;21.038;2024-02-16T03:29:26;23.08;;;10.82;;
75746;SDS011;70632;52.232;21.038;2024-02-16T03:31:52;21.33;;;9.93;;
75746;SDS011;70632;52.232;21.038;2024-02-16T03:34:17;20.17;;;9.68;;
75746;SDS011;70632;52.232;21.038;2024-02-16T03:36:43;21.00;;;10.65;;
75746;SDS011;70632;52.232;21.038;2024-02-16T03:39:09;20.23;;;10.30;;
75746;SDS011;70632;52.232;21.038;2024-02-16T03:41:35;20.75;;;10.25;;
75746;SDS011;70632;52.232;21.038;2024-02-16T03:44:01;23.80;;;10.25;;
75746;SDS011;70632;52.232;21.038;2024-02-16T03:46:27;19.40;;;9.52;;
75746;SDS011;70632;52.232;21.038;2024-02-16T03:48:52;18.52;;;8.75;;
75746;SDS011;70632;52.232;21.038;2024-02-16T03:51:18;22.80;;;10.27;;
75746;SDS011;70632;52.232;21.038;2024-02-16T03:53:44;23.27;;;10.57;;
75746;SDS011;70632;52.232;21.038;2024-02-16T03:56:10;20.85;;;9.75;;
75746;SDS011;70632;52.232;21.038;2024-02-16T03:58:37;21.92;;;9.80;;
75746;SDS011;70632;52.232;21.038;2024-02-16T04:01:03;26.65;;;10.18;;
75746;SDS011;70632;52.232;21.038;2024-02-16T04:03:32;22.67;;;10.07;;
75746;SDS011;70632;52.232;21.038;2024-02-16T04:05:57;30.08;;;12.02;;
75746;SDS011;70632;52.232;21.038;2024-02-16T04:08:25;18.80;;;9.40;;
75746;SDS011;70632;52.232;21.038;2024-02-16T04:10:51;21.25;;;9.57;;
75746;SDS011;70632;52.232;21.038;2024-02-16T04:13:16;20.67;;;10.20;;
75746;SDS011;70632;52.232;21.038;2024-02-16T04:15:42;19.30;;;9.23;;
75746;SDS011;70632;52.232;21.038;2024-02-16T04:18:08;24.13;;;9.98;;
75746;SDS011;70632;52.232;21.038;2024-02-16T04:20:34;18.95;;;9.60;;
75746;SDS011;70632;52.232;21.038;2024-02-16T04:23:01;19.75;;;9.82;;
75746;SDS011;70632;52.232;21.038;2024-02-16T04:25:27;18.40;;;7.70;;
75746;SDS011;70632;52.232;21.038;2024-02-16T04:27:52;20.80;;;9.48;;
75746;SDS011;70632;52.232;21.038;2024-02-16T04:30:18;21.27;;;9.88;;
75746;SDS011;70632;52.232;21.038;2024-02-16T04:32:44;16.25;;;8.18;;
75746;SDS011;70632;52.232;21.038;2024-02-16T04:35:10;20.50;;;9.80;;
75746;SDS011;70632;52.232;21.038;2024-02-16T04:37:40;22.35;;;10.32;;
75746;SDS011;70632;52.232;21.038;2024-02-16T04:40:06;21.58;;;9.98;;
75746;SDS011;70632;52.232;21.038;2024-02-16T04:42:33;18.48;;;8.48;;
75746;SDS011;70632;52.232;21.038;2024-02-16T04:44:59;20.75;;;9.60;;
75746;SDS011;70632;52.232;21.038;2024-02-16T04:47:25;30.75;;;10.85;;
75746;SDS011;70632;52.232;21.038;2024-02-16T04:49:52;20.75;;;9.48;;
75746;SDS011;70632;52.232;21.038;2024-02-16T04:52:17;19.25;;;10.25;;
75746;SDS011;70632;52.232;21.038;2024-02-16T04:54:43;32.45;;;11.45;;
75746;SDS011;70632;52.232;21.038;2024-02-16T04:57:09;25.63;;;10.35;;
75746;SDS011;70632;52.232;21.038;2024-02-16T04:59:35;25.35;;;11.07;;
75746;SDS011;70632;52.232;21.038;2024-02-16T05:02:00;22.33;;;10.35;;
75746;SDS011;70632;52.232;21.038;2024-02-16T05:04:26;22.42;;;11.02;;
75746;SDS011;70632;52.232;21.038;2024-02-16T05:06:52;19.83;;;10.77;;
75746;SDS011;70632;52.232;21.038;2024-02-16T05:09:23;24.92;;;11.55;;
75746;SDS011;70632;52.232;21.038;2024-02-16T05:11:50;23.13;;;10.52;;
75746;SDS011;70632;52.232;21.038;2024-02-16T05:14:16;21.92;;;10.00;;
75746;SDS011;70632;52.232;21.038;2024-02-16T05:16:46;24.10;;;11.18;;
75746;SDS011;70632;52.232;21.038;2024-02-16T05:19:12;22.35;;;10.68;;
75746;SDS011;70632;52.232;21.038;2024-02-16T05:21:38;20.95;;;10.52;;
75746;SDS011;70632;52.232;21.038;2024-02-16T05:24:04;25.98;;;11.50;;
75746;SDS011;70632;52.232;21.038;2024-02-16T05:26:30;19.83;;;9.73;;
75746;SDS011;70632;52.232;21.038;2024-02-16T05:28:56;23.33;;;10.57;;
75746;SDS011;70632;52.232;21.038;2024-02-16T05:31:21;25.48;;;10.98;;
75746;SDS011;70632;52.232;21.038;2024-02-16T05:33:48;24.55;;;11.50;;
75746;SDS011;70632;52.232;21.038;2024-02-16T05:36:21;25.35;;;11.40;;
75746;SDS011;70632;52.232;21.038;2024-02-16T05:38:50;22.50;;;10.57;;
75746;SDS011;70632;52.232;21.038;2024-02-16T05:41:17;24.98;;;11.10;;
75746;SDS011;70632;52.232;21.038;2024-02-16T05:43:45;24.15;;;11.55;;
75746;SDS011;70632;52.232;21.038;2024-02-16T05:46:14;20.40;;;10.07;;
75746;SDS011;70632;52.232;21.038;2024-02-16T05:48:42;23.23;;;11.15;;
75746;SDS011;70632;52.232;21.038;2024-02-16T05:51:08;23.35;;;10.85;;
75746;SDS011;70632;52.232;21.038;2024-02-16T05:53:34;27.35;;;12.65;;
75746;SDS011;70632;52.232;21.038;2024-02-16T05:56:00;25.52;;;11.50;;
75746;SDS011;70632;52.232;21.038;2024-02-16T05:58:27;24.42;;;10.98;;
75746;SDS011;70632;52.232;21.038;2024-02-16T06:00:54;25.98;;;12.27;;
75746;SDS011;70632;52.232;21.038;2024-02-16T06:03:20;23.95;;;11.85;;
75746;SDS011;70632;52.232;21.038;2024-02-16T06:05:47;29.33;;;11.80;;
75746;SDS011;70632;52.232;21.038;2024-02-16T06:08:13;25.35;;;11.45;;
75746;SDS011;70632;52.232;21.038;2024-02-16T06:10:39;26.98;;;12.10;;
75746;SDS011;70632;52.232;21.038;2024-02-16T06:13:07;22.60;;;12.25;;
75746;SDS011;70632;52.232;21.038;2024-02-16T06:15:33;23.15;;;11.27;;
75746;SDS011;70632;52.232;21.038;2024-02-16T06:18:02;22.38;;;11.73;;
75746;SDS011;70632;52.232;21.038;2024-02-16T06:20:28;25.23;;;11.15;;
75746;SDS011;70632;52.232;21.038;2024-02-16T06:22:53;25.08;;;11.55;;
75746;SDS011;70632;52.232;21.038;2024-02-16T06:25:19;29.83;;;12.55;;
75746;SDS011;70632;52.232;21.038;2024-02-16T06:27:45;21.83;;;11.70;;
75746;SDS011;70632;52.232;21.038;2024-02-16T06:30:11;25.08;;;11.73;;
75746;SDS011;70632;52.232;21.038;2024-02-16T06:32:39;28.45;;;12.27;;
75746;SDS011;70632;52.232;21.038;2024-02-16T06:35:06;27.38;;;12.70;;
75746;SDS011;70632;52.232;21.038;2024-02-16T06:37:33;24.15;;;12.30;;
75746;SDS011;70632;52.232;21.038;2024-02-16T06:39:59;32.85;;;12.77;;
75746;SDS011;70632;52.232;21.038;2024-02-16T06:42:25;27.17;;;11.73;;
75746;SDS011;70632;52.232;21.038;2024-02-16T06:44:50;26.52;;;13.95;;
75746;SDS011;70632;52.232;21.038;2024-02-16T06:47:16;29.20;;;12.85;;
75746;SDS011;70632;52.232;21.038;2024-02-16T06:49:42;33.20;;;12.25;;
75746;SDS011;70632;52.232;21.038;2024-02-16T06:52:08;27.35;;;12.27;;
75746;SDS011;70632;52.232;21.038;2024-02-16T06:54:35;29.95;;;11.65;;
75746;SDS011;70632;52.232;21.038;2024-02-16T06:57:01;23.80;;;11.05;;
75746;SDS011;70632;52.232;21.038;2024-02-16T06:59:26;31.85;;;12.68;;
75746;SDS011;70632;52.232;21.038;2024-02-16T07:01:53;29.30;;;12.82;;
75746;SDS011;70632;52.232;21.038;2024-02-16T07:04:18;27.67;;;12.70;;
75746;SDS011;70632;52.232;21.038;2024-02-16T07:06:44;27.27;;;12.57;;
75746;SDS011;70632;52.232;21.038;2024-02-16T07:09:10;25.23;;;13.02;;
75746;SDS011;70632;52.232;21.038;2024-02-16T07:11:39;26.30;;;13.00;;
75746;SDS011;70632;52.232;21.038;2024-02-16T07:14:05;32.28;;;12.88;;
75746;SDS011;70632;52.232;21.038;2024-02-16T07:16:32;27.50;;;12.77;;
75746;SDS011;70632;52.232;21.038;2024-02-16T07:18:57;25.67;;;12.98;;
75746;SDS011;70632;52.232;21.038;2024-02-16T07:21:23;28.42;;;12.15;;
75746;SDS011;70632;52.232;21.038;2024-02-16T07:23:52;25.58;;;11.40;;
75746;SDS011;70632;52.232;21.038;2024-02-16T07:26:18;28.60;;;12.45;;
75746;SDS011;70632;52.232;21.038;2024-02-16T07:28:44;21.52;;;11.43;;
75746;SDS011;70632;52.232;21.038;2024-02-16T07:31:10;26.58;;;11.88;;
75746;SDS011;70632;52.232;21.038;2024-02-16T07:33:36;23.17;;;11.25;;
75746;SDS011;70632;52.232;21.038;2024-02-16T07:36:02;24.85;;;12.70;;
75746;SDS011;70632;52.232;21.038;2024-02-16T07:38:29;25.95;;;12.32;;
75746;SDS011;70632;52.232;21.038;2024-02-16T07:40:55;27.42;;;11.73;;
75746;SDS011;70632;52.232;21.038;2024-02-16T07:43:21;26.75;;;12.77;;
75746;SDS011;70632;52.232;21.038;2024-02-16T07:45:50;25.63;;;11.93;;
75746;SDS011;70632;52.232;21.038;2024-02-16T07:50:47;23.52;;;11.90;;
75746;SDS011;70632;52.232;21.038;2024-02-16T07:53:13;27.02;;;11.48;;
75746;SDS011;70632;52.232;21.038;2024-02-16T07:55:39;24.50;;;12.40;;
75746;SDS011;70632;52.232;21.038;2024-02-16T07:58:05;23.35;;;12.55;;
75746;SDS011;70632;52.232;21.038;2024-02-16T08:00:31;25.92;;;12.48;;
75746;SDS011;70632;52.232;21.038;2024-02-16T08:02:56;28.65;;;11.98;;
75746;SDS011;70632;52.232;21.038;2024-02-16T08:05:22;23.50;;;11.45;;
75746;SDS011;70632;52.232;21.038;2024-02-16T08:07:49;24.60;;;12.18;;
75746;SDS011;70632;52.232;21.038;2024-02-16T08:10:18;26.10;;;11.98;;
75746;SDS011;70632;52.232;21.038;2024-02-16T08:12:46;22.77;;;12.20;;
75746;SDS011;70632;52.232;21.038;2024-02-16T08:15:12;27.42;;;13.20;;
75746;SDS011;70632;52.232;21.038;2024-02-16T08:17:39;21.70;;;12.32;;
75746;SDS011;70632;52.232;21.038;2024-02-16T08:20:05;26.77;;;13.50;;
75746;SDS011;70632;52.232;21.038;2024-02-16T08:22:31;26.17;;;12.73;;
75746;SDS011;70632;52.232;21.038;2024-02-16T08:24:58;26.27;;;12.30;;
75746;SDS011;70632;52.232;21.038;2024-02-16T08:27:24;27.35;;;12.45;;
75746;SDS011;70632;52.232;21.038;2024-02-16T08:29:50;24.38;;;12.02;;
75746;SDS011;70632;52.232;21.038;2024-02-16T08:32:17;23.50;;;12.02;;
75746;SDS011;70632;52.232;21.038;2024-02-16T08:34:43;22.23;;;12.02;;
75746;SDS011;70632;52.232;21.038;2024-02-16T08:37:09;19.88;;;11.55;;
75746;SDS011;70632;52.232;21.038;2024-02-16T08:39:37;25.10;;;12.77;;
75746;SDS011;70632;52.232;21.038;2024-02-16T08:42:03;20.83;;;11.95;;
75746;SDS011;70632;52.232;21.038;2024-02-16T08:44:29;26.58;;;12.73;;
75746;SDS011;70632;52.232;21.038;2024-02-16T08:46:55;26.02;;;12.95;;
75746;SDS011;70632;52.232;21.038;2024-02-16T08:49:22;24.75;;;11.73;;
75746;SDS011;70632;52.232;21.038;2024-02-16T08:51:47;22.73;;;13.85;;
75746;SDS011;70632;52.232;21.038;2024-02-16T08:54:13;25.10;;;14.52;;
75746;SDS011;70632;52.232;21.038;2024-02-16T08:56:39;24.38;;;12.20;;
75746;SDS011;70632;52.232;21.038;2024-02-16T08:59:05;22.73;;;13.20;;
75746;SDS011;70632;52.232;21.038;2024-02-16T09:01:31;27.02;;;12.40;;
75746;SDS011;70632;52.232;21.038;2024-02-16T09:03:58;22.13;;;13.05;;
75746;SDS011;70632;52.232;21.038;2024-02-16T09:06:24;21.40;;;11.93;;
75746;SDS011;70632;52.232;21.038;2024-02-16T09:08:50;21.42;;;11.25;;
75746;SDS011;70632;52.232;21.038;2024-02-16T09:11:16;23.65;;;12.57;;
75746;SDS011;70632;52.232;21.038;2024-02-16T09:13:42;26.13;;;12.98;;
75746;SDS011;70632;52.232;21.038;2024-02-16T09:16:08;21.33;;;13.45;;
75746;SDS011;70632;52.232;21.038;2024-02-16T09:18:34;21.25;;;11.70;;
75746;SDS011;70632;52.232;21.038;2024-02-16T09:21:02;23.58;;;13.30;;
75746;SDS011;70632;52.232;21.038;2024-02-16T09:23:28;22.92;;;12.52;;
75746;SDS011;70632;52.232;21.038;2024-02-16T09:25:54;22.00;;;13.10;;
75746;SDS011;70632;52.232;21.038;2024-02-16T09:28:20;24.73;;;11.73;;
75746;SDS011;70632;52.232;21.038;2024-02-16T09:30:46;20.70;;;12.68;;
75746;SDS011;70632;52.232;21.038;2024-02-16T09:33:12;20.52;;;12.13;;
75746;SDS011;70632;52.232;21.038;2024-02-16T09:35:39;22.95;;;12.70;;
75746;SDS011;70632;52.232;21.038;2024-02-16T09:38:06;25.27;;;12.38;;
75746;SDS011;70632;52.232;21.038;2024-02-16T09:40:36;23.27;;;13.00;;
75746;SDS011;70632;52.232;21.038;2024-02-16T09:43:02;21.35;;;12.68;;
75746;SDS011;70632;52.232;21.038;2024-02-16T09:45:28;28.90;;;12.73;;
75746;SDS011;70632;52.232;21.038;2024-02-16T09:47:54;23.27;;;11.93;;
75746;SDS011;70632;52.232;21.038;2024-02-16T09:50:21;22.65;;;12.60;;
75746;SDS011;70632;52.232;21.038;2024-02-16T09:52:47;22.42;;;11.65;;
75746;SDS011;70632;52.232;21.038;2024-02-16T09:55:15;20.98;;;12.57;;
75746;SDS011;70632;52.232;21.038;2024-02-16T09:57:45;24.67;;;12.05;;
75746;SDS011;70632;52.232;21.038;2024-02-16T10:02:44;22.90;;;11.32;;
75746;SDS011;70632;52.232;21.038;2024-02-16T10:05:18;21.27;;;12.45;;
75746;SDS011;70632;52.232;21.038;2024-02-16T10:07:46;27.10;;;11.68;;
75746;SDS011;70632;52.232;21.038;2024-02-16T10:10:22;23.90;;;12.02;;
75746;SDS011;70632;52.232;21.038;2024-02-16T10:13:01;19.30;;;10.63;;
75746;SDS011;70632;52.232;21.038;2024-02-16T10:15:29;20.10;;;11.73;;
75746;SDS011;70632;52.232;21.038;2024-02-16T10:17:59;23.50;;;12.07;;
75746;SDS011;70632;52.232;21.038;2024-02-16T10:20:25;20.00;;;11.32;;
75746;SDS011;70632;52.232;21.038;2024-02-16T10:25:36;24.15;;;11.25;;
75746;SDS011;70632;52.232;21.038;2024-02-16T10:28:04;18.67;;;10.90;;
75746;SDS011;70632;52.232;21.038;2024-02-16T10:30:34;26.00;;;12.13;;
75746;SDS011;70632;52.232;21.038;2024-02-16T10:33:01;21.85;;;11.18;;
75746;SDS011;70632;52.232;21.038;2024-02-16T10:35:28;25.08;;;11.55;;
75746;SDS011;70632;52.232;21.038;2024-02-16T10:37:55;24.95;;;11.80;;
75746;SDS011;70632;52.232;21.038;2024-02-16T10:40:23;25.27;;;11.75;;
75746;SDS011;70632;52.232;21.038;2024-02-16T10:42:50;22.88;;;11.10;;
75746;SDS011;70632;52.232;21.038;2024-02-16T10:45:16;26.85;;;12.27;;
75746;SDS011;70632;52.232;21.038;2024-02-16T10:47:43;24.83;;;10.90;;
75746;SDS011;70632;52.232;21.038;2024-02-16T10:50:08;21.45;;;11.15;;
75746;SDS011;70632;52.232;21.038;2024-02-16T10:52:35;19.38;;;10.70;;
75746;SDS011;70632;52.232;21.038;2024-02-16T10:55:04;24.15;;;11.23;;
75746;SDS011;70632;52.232;21.038;2024-02-16T10:57:31;21.33;;;11.25;;
75746;SDS011;70632;52.232;21.038;2024-02-16T10:59:58;21.98;;;11.02;;
75746;SDS011;70632;52.232;21.038;2024-02-16T11:02:25;20.98;;;11.10;;
75746;SDS011;70632;52.232;21.038;2024-02-16T11:04:52;15.70;;;9.55;;
75746;SDS011;70632;52.232;21.038;2024-02-16T11:07:19;21.10;;;10.70;;
75746;SDS011;70632;52.232;21.038;2024-02-16T11:09:45;19.35;;;11.45;;
75746;SDS011;70632;52.232;21.038;2024-02-16T11:12:12;21.08;;;10.77;;
75746;SDS011;70632;52.232;21.038;2024-02-16T11:14:41;20.92;;;11.32;;
75746;SDS011;70632;52.232;21.038;2024-02-16T11:17:08;24.42;;;12.10;;
75746;SDS011;70632;52.232;21.038;2024-02-16T11:19:45;23.77;;;12.75;;
75746;SDS011;70632;52.232;21.038;2024-02-16T11:22:18;24.02;;;13.20;;
75746;SDS011;70632;52.232;21.038;2024-02-16T11:24:53;21.70;;;11.32;;
75746;SDS011;70632;52.232;21.038;2024-02-16T11:27:20;19.33;;;11.48;;
75746;SDS011;70632;52.232;21.038;2024-02-16T11:29:47;23.63;;;11.75;;
75746;SDS011;70632;52.232;21.038;2024-02-16T11:32:14;23.33;;;10.70;;
75746;SDS011;70632;52.232;21.038;2024-02-16T11:34:39;23.60;;;11.27;;
75746;SDS011;70632;52.232;21.038;2024-02-16T11:37:06;22.85;;;11.85;;
75746;SDS011;70632;52.232;21.038;2024-02-16T11:39:32;25.50;;;12.68;;
75746;SDS011;70632;52.232;21.038;2024-02-16T11:44:28;29.48;;;12.98;;
75746;SDS011;70632;52.232;21.038;2024-02-16T11:46:55;22.58;;;11.82;;
75746;SDS011;70632;52.232;21.038;2024-02-16T11:49:20;24.27;;;12.70;;
75746;SDS011;70632;52.232;21.038;2024-02-16T11:51:47;23.92;;;11.57;;
75746;SDS011;70632;52.232;21.038;2024-02-16T11:54:12;24.38;;;11.85;;
75746;SDS011;70632;52.232;21.038;2024-02-16T11:56:39;23.88;;;11.40;;
75746;SDS011;70632;52.232;21.038;2024-02-16T11:59:07;25.73;;;11.98;;
75746;SDS011;70632;52.232;21.038;2024-02-16T12:01:33;24.40;;;12.88;;
75746;SDS011;70632;52.232;21.038;2024-02-16T12:03:59;24.58;;;12.07;;
75746;SDS011;70632;52.232;21.038;2024-02-16T12:06:25;26.10;;;12.52;;
75746;SDS011;70632;52.232;21.038;2024-02-16T12:08:51;23.02;;;11.07;;
75746;SDS011;70632;52.232;21.038;2024-02-16T12:13:45;24.17;;;12.40;;
75746;SDS011;70632;52.232;21.038;2024-02-16T12:16:11;23.83;;;11.65;;
75746;SDS011;70632;52.232;21.038;2024-02-16T12:18:37;19.50;;;11.50;;
75746;SDS011;70632;52.232;21.038;2024-02-16T12:21:04;24.98;;;11.75;;
75746;SDS011;70632;52.232;21.038;2024-02-16T12:23:31;25.08;;;11.75;;
75746;SDS011;70632;52.232;21.038;2024-02-16T12:25:58;25.42;;;12.60;;
75746;SDS011;70632;52.232;21.038;2024-02-16T12:28:25;23.55;;;11.65;;
75746;SDS011;70632;52.232;21.038;2024-02-16T12:30:54;21.90;;;11.60;;
75746;SDS011;70632;52.232;21.038;2024-02-16T12:33:21;20.80;;;10.60;;
75746;SDS011;70632;52.232;21.038;2024-02-16T12:35:48;23.83;;;12.18;;
75746;SDS011;70632;52.232;21.038;2024-02-16T12:38:13;29.73;;;12.73;;
75746;SDS011;70632;52.232;21.038;2024-02-16T12:40:42;19.20;;;10.77;;
75746;SDS011;70632;52.232;21.038;2024-02-16T12:43:08;23.77;;;11.50;;
75746;SDS011;70632;52.232;21.038;2024-02-16T12:45:36;19.92;;;11.18;;
75746;SDS011;70632;52.232;21.038;2024-02-16T12:48:02;25.30;;;11.20;;
75746;SDS011;70632;52.232;21.038;2024-02-16T12:50:29;21.52;;;11.30;;
75746;SDS011;70632;52.232;21.038;2024-02-16T12:52:55;24.20;;;12.05;;
75746;SDS011;70632;52.232;21.038;2024-02-16T12:55:22;20.13;;;11.13;;
75746;SDS011;70632;52.232;21.038;2024-02-16T12:57:49;22.17;;;11.48;;
75746;SDS011;70632;52.232;21.038;2024-02-16T13:00:15;22.25;;;12.20;;
75746;SDS011;70632;52.232;21.038;2024-02-16T13:02:41;22.40;;;11.20;;
75746;SDS011;70632;52.232;21.038;2024-02-16T13:05:07;21.30;;;11.60;;
75746;SDS011;70632;52.232;21.038;2024-02-16T13:07:35;18.85;;;10.32;;
75746;SDS011;70632;52.232;21.038;2024-02-16T13:10:08;20.08;;;11.00;;
75746;SDS011;70632;52.232;21.038;2024-02-16T13:12:34;19.80;;;11.60;;
75746;SDS011;70632;52.232;21.038;2024-02-16T13:15:06;19.95;;;12.40;;
75746;SDS011;70632;52.232;21.038;2024-02-16T13:17:36;21.63;;;11.05;;
75746;SDS011;70632;52.232;21.038;2024-02-16T13:20:04;17.27;;;9.63;;
75746;SDS011;70632;52.232;21.038;2024-02-16T13:22:38;28.17;;;12.05;;
75746;SDS011;70632;52.232;21.038;2024-02-16T13:25:04;22.15;;;11.95;;
75746;SDS011;70632;52.232;21.038;2024-02-16T13:27:34;26.70;;;11.95;;
75746;SDS011;70632;52.232;21.038;2024-02-16T13:30:01;22.90;;;12.15;;
75746;SDS011;70632;52.232;21.038;2024-02-16T13:32:26;22.08;;;11.45;;
75746;SDS011;70632;52.232;21.038;2024-02-16T13:34:53;21.05;;;11.63;;
75746;SDS011;70632;52.232;21.038;2024-02-16T13:37:18;19.30;;;11.30;;
75746;SDS011;70632;52.232;21.038;2024-02-16T13:39:44;22.17;;;10.85;;
75746;SDS011;70632;52.232;21.038;2024-02-16T13:42:12;25.40;;;12.85;;
75746;SDS011;70632;52.232;21.038;2024-02-16T13:44:39;24.00;;;11.23;;
75746;SDS011;70632;52.232;21.038;2024-02-16T13:47:04;20.88;;;11.20;;
75746;SDS011;70632;52.232;21.038;2024-02-16T13:49:30;20.02;;;10.98;;
75746;SDS011;70632;52.232;21.038;2024-02-16T13:51:56;18.55;;;10.18;;
75746;SDS011;70632;52.232;21.038;2024-02-16T13:54:24;21.40;;;10.63;;
75746;SDS011;70632;52.232;21.038;2024-02-16T13:56:50;19.17;;;10.15;;
75746;SDS011;70632;52.232;21.038;2024-02-16T13:59:16;20.95;;;10.20;;
75746;SDS011;70632;52.232;21.038;2024-02-16T14:01:42;17.92;;;9.65;;
75746;SDS011;70632;52.232;21.038;2024-02-16T14:04:08;18.45;;;8.43;;
75746;SDS011;70632;52.232;21.038;2024-02-16T14:06:34;19.40;;;9.43;;
75746;SDS011;70632;52.232;21.038;2024-02-16T14:09:01;16.08;;;8.85;;
75746;SDS011;70632;52.232;21.038;2024-02-16T14:11:34;17.10;;;8.75;;
75746;SDS011;70632;52.232;21.038;2024-02-16T14:14:01;18.73;;;9.10;;
75746;SDS011;70632;52.232;21.038;2024-02-16T14:16:27;14.90;;;7.80;;
75746;SDS011;70632;52.232;21.038;2024-02-16T14:18:53;14.25;;;7.80;;
75746;SDS011;70632;52.232;21.038;2024-02-16T14:21:19;16.15;;;9.13;;